sensor_id;sensor_type;location;lat;lon;timestamp;temperature;humidity
59999;DHT22;45859;51.378;6.736;2023-07-31T00:01:23;16.20;99.90
59999;DHT22;45859;51.378;6.736;2023-07-31T00:03:49;16.30;99.90
59999;DHT22;45859;51.378;6.736;2023-07-31T00:06:15;16.30;99.90
59999;DHT22;45859;51.378;6.736;2023-07-31T00:08:40;16.30;99.90
59999;DHT22;45859;51.378;6.736;2023-07-31T00:11:06;16.30;99.90
59999;DHT22;45859;51.378;6.736;2023-07-31T00:13:32;16.30;99.90
59999;DHT22;45859;51.378;6.736;2023-07-31T00:15:57;16.30;99.90
59999;DHT22;45859;51.378;6.736;2023-07-31T00:18:23;16.30;99.90
59999;DHT22;45859;51.378;6.736;2023-07-31T00:20:49;16.30;99.90
59999;DHT22;45859;51.378;6.736;2023-07-31T00:23:14;16.30;99.90
59999;DHT22;45859;51.378;6.736;2023-07-31T00:25:41;16.30;99.90
59999;DHT22;45859;51.378;6.736;2023-07-31T00:28:07;16.40;99.90
59999;DHT22;45859;51.378;6.736;2023-07-31T00:30:33;16.40;99.90
59999;DHT22;45859;51.378;6.736;2023-07-31T00:32:58;16.40;99.90
59999;DHT22;45859;51.378;6.736;2023-07-31T00:35:24;16.40;99.90
59999;DHT22;45859;51.378;6.736;2023-07-31T00:37:50;16.40;99.90
59999;DHT22;45859;51.378;6.736;2023-07-31T00:40:15;16.40;99.90
59999;DHT22;45859;51.378;6.736;2023-07-31T00:42:41;16.40;99.90
59999;DHT22;45859;51.378;6.736;2023-07-31T00:45:07;16.50;99.90
59999;DHT22;45859;51.378;6.736;2023-07-31T00:47:33;16.50;99.90
59999;DHT22;45859;51.378;6.736;2023-07-31T00:49:59;16.50;99.90
59999;DHT22;45859;51.378;6.736;2023-07-31T00:52:25;16.50;99.90
59999;DHT22;45859;51.378;6.736;2023-07-31T00:54:50;16.50;99.90
59999;DHT22;45859;51.378;6.736;2023-07-31T00:57:16;16.50;99.90
59999;DHT22;45859;51.378;6.736;2023-07-31T00:59:42;16.50;99.90
59999;DHT22;45859;51.378;6.736;2023-07-31T01:02:08;16.50;99.90
59999;DHT22;45859;51.378;6.736;2023-07-31T01:04:34;16.50;99.90
59999;DHT22;45859;51.378;6.736;2023-07-31T01:09:56;16.50;99.90
59999;DHT22;45859;51.378;6.736;2023-07-31T01:12:28;16.50;99.90
59999;DHT22;45859;51.378;6.736;2023-07-31T01:17:26;16.50;99.90
59999;DHT22;45859;51.378;6.736;2023-07-31T01:19:54;16.50;99.90
59999;DHT22;45859;51.378;6.736;2023-07-31T01:22:41;16.50;99.90
59999;DHT22;45859;51.378;6.736;2023-07-31T01:25:35;16.50;99.90
59999;DHT22;45859;51.378;6.736;2023-07-31T01:28:05;16.50;99.90
59999;DHT22;45859;51.378;6.736;2023-07-31T01:30:34;16.50;99.90
59999;DHT22;45859;51.378;6.736;2023-07-31T01:33:02;16.50;99.90
59999;DHT22;45859;51.378;6.736;2023-07-31T01:35:33;16.60;99.90
59999;DHT22;45859;51.378;6.736;2023-07-31T01:37:59;16.60;99.90
59999;DHT22;45859;51.378;6.736;2023-07-31T01:40:25;16.60;99.90
59999;DHT22;45859;51.378;6.736;2023-07-31T01:42:50;16.60;99.90
59999;DHT22;45859;51.378;6.736;2023-07-31T01:45:16;16.70;99.90
59999;DHT22;45859;51.378;6.736;2023-07-31T01:47:42;16.70;99.90
59999;DHT22;45859;51.378;6.736;2023-07-31T01:50:08;16.70;99.90
59999;DHT22;45859;51.378;6.736;2023-07-31T01:52:34;16.70;99.90
59999;DHT22;45859;51.378;6.736;2023-07-31T01:54:59;16.80;99.90
59999;DHT22;45859;51.378;6.736;2023-07-31T01:57:25;16.80;99.90
59999;DHT22;45859;51.378;6.736;2023-07-31T01:59:51;16.80;99.90
59999;DHT22;45859;51.378;6.736;2023-07-31T02:02:19;16.80;99.90
59999;DHT22;45859;51.378;6.736;2023-07-31T02:04:45;16.80;99.90
59999;DHT22;45859;51.378;6.736;2023-07-31T02:07:10;16.80;99.90
59999;DHT22;45859;51.378;6.736;2023-07-31T02:09:36;16.90;99.90
59999;DHT22;45859;51.378;6.736;2023-07-31T02:12:02;16.90;99.90
59999;DHT22;45859;51.378;6.736;2023-07-31T02:14:27;16.90;99.90
59999;DHT22;45859;51.378;6.736;2023-07-31T02:16:53;16.90;99.90
59999;DHT22;45859;51.378;6.736;2023-07-31T02:19:19;16.90;99.90
59999;DHT22;45859;51.378;6.736;2023-07-31T02:21:44;16.90;99.90
59999;DHT22;45859;51.378;6.736;2023-07-31T02:24:10;17.00;99.90
59999;DHT22;45859;51.378;6.736;2023-07-31T02:26:36;17.00;99.90
59999;DHT22;45859;51.378;6.736;2023-07-31T02:29:01;17.00;99.90
59999;DHT22;45859;51.378;6.736;2023-07-31T02:31:27;17.00;99.90
59999;DHT22;45859;51.378;6.736;2023-07-31T02:33:53;17.00;99.90
59999;DHT22;45859;51.378;6.736;2023-07-31T02:36:18;16.90;99.90
59999;DHT22;45859;51.378;6.736;2023-07-31T02:38:44;16.90;99.90
59999;DHT22;45859;51.378;6.736;2023-07-31T02:41:10;16.90;99.90
59999;DHT22;45859;51.378;6.736;2023-07-31T02:43:36;16.90;99.90
59999;DHT22;45859;51.378;6.736;2023-07-31T02:46:01;16.90;99.90
59999;DHT22;45859;51.378;6.736;2023-07-31T02:48:27;16.90;99.90
59999;DHT22;45859;51.378;6.736;2023-07-31T02:50:53;16.80;99.90
59999;DHT22;45859;51.378;6.736;2023-07-31T02:53:19;16.90;99.90
59999;DHT22;45859;51.378;6.736;2023-07-31T02:55:44;16.90;99.90
59999;DHT22;45859;51.378;6.736;2023-07-31T02:58:10;16.80;99.90
59999;DHT22;45859;51.378;6.736;2023-07-31T03:00:36;16.80;99.90
59999;DHT22;45859;51.378;6.736;2023-07-31T03:03:06;16.90;99.90
59999;DHT22;45859;51.378;6.736;2023-07-31T03:05:32;16.90;99.90
59999;DHT22;45859;51.378;6.736;2023-07-31T03:07:58;16.90;99.90
59999;DHT22;45859;51.378;6.736;2023-07-31T03:10:23;16.90;99.90
59999;DHT22;45859;51.378;6.736;2023-07-31T03:12:49;16.90;99.90
59999;DHT22;45859;51.378;6.736;2023-07-31T03:15:15;17.00;99.90
59999;DHT22;45859;51.378;6.736;2023-07-31T03:17:41;17.00;99.90
59999;DHT22;45859;51.378;6.736;2023-07-31T03:20:07;17.00;99.90
59999;DHT22;45859;51.378;6.736;2023-07-31T03:22:34;17.00;99.90
59999;DHT22;45859;51.378;6.736;2023-07-31T03:25:04;17.00;99.90
59999;DHT22;45859;51.378;6.736;2023-07-31T03:27:29;17.00;99.90
59999;DHT22;45859;51.378;6.736;2023-07-31T03:29:55;17.10;99.90
59999;DHT22;45859;51.378;6.736;2023-07-31T03:32:21;17.10;99.90
59999;DHT22;45859;51.378;6.736;2023-07-31T03:34:46;17.10;99.90
59999;DHT22;45859;51.378;6.736;2023-07-31T03:37:12;17.20;99.90
59999;DHT22;45859;51.378;6.736;2023-07-31T03:39:38;17.20;99.90
59999;DHT22;45859;51.378;6.736;2023-07-31T03:42:04;17.20;99.90
59999;DHT22;45859;51.378;6.736;2023-07-31T03:44:30;17.30;99.90
59999;DHT22;45859;51.378;6.736;2023-07-31T03:46:56;17.30;99.90
59999;DHT22;45859;51.378;6.736;2023-07-31T03:49:21;17.30;99.90
59999;DHT22;45859;51.378;6.736;2023-07-31T03:51:47;17.30;99.90
59999;DHT22;45859;51.378;6.736;2023-07-31T03:54:13;17.20;99.90
59999;DHT22;45859;51.378;6.736;2023-07-31T03:56:40;17.30;99.90
59999;DHT22;45859;51.378;6.736;2023-07-31T03:59:06;17.30;99.90
59999;DHT22;45859;51.378;6.736;2023-07-31T04:01:31;17.20;99.90
59999;DHT22;45859;51.378;6.736;2023-07-31T04:03:57;17.30;99.90
59999;DHT22;45859;51.378;6.736;2023-07-31T04:06:23;17.30;99.90
59999;DHT22;45859;51.378;6.736;2023-07-31T04:08:49;17.30;99.90
59999;DHT22;45859;51.378;6.736;2023-07-31T04:11:14;17.30;99.90
59999;DHT22;45859;51.378;6.736;2023-07-31T04:13:40;17.30;99.90
59999;DHT22;45859;51.378;6.736;2023-07-31T04:16:06;17.30;99.90
59999;DHT22;45859;51.378;6.736;2023-07-31T04:18:31;17.20;99.90
59999;DHT22;45859;51.378;6.736;2023-07-31T04:20:58;17.00;99.90
59999;DHT22;45859;51.378;6.736;2023-07-31T04:23:24;17.00;99.90
59999;DHT22;45859;51.378;6.736;2023-07-31T04:25:50;16.90;99.90
59999;DHT22;45859;51.378;6.736;2023-07-31T04:28:16;17.00;99.90
59999;DHT22;45859;51.378;6.736;2023-07-31T04:30:42;17.00;99.90
59999;DHT22;45859;51.378;6.736;2023-07-31T04:33:08;16.90;99.90
59999;DHT22;45859;51.378;6.736;2023-07-31T04:35:34;16.90;99.90
59999;DHT22;45859;51.378;6.736;2023-07-31T04:37:59;16.90;99.90
59999;DHT22;45859;51.378;6.736;2023-07-31T04:40:25;16.90;99.90
59999;DHT22;45859;51.378;6.736;2023-07-31T04:42:51;16.90;99.90
59999;DHT22;45859;51.378;6.736;2023-07-31T04:45:17;16.90;99.90
59999;DHT22;45859;51.378;6.736;2023-07-31T04:47:42;17.00;99.90
59999;DHT22;45859;51.378;6.736;2023-07-31T04:50:09;16.90;99.90
59999;DHT22;45859;51.378;6.736;2023-07-31T04:52:34;17.00;99.90
59999;DHT22;45859;51.378;6.736;2023-07-31T04:55:00;17.00;99.90
59999;DHT22;45859;51.378;6.736;2023-07-31T04:57:26;17.00;99.90
59999;DHT22;45859;51.378;6.736;2023-07-31T04:59:52;17.00;99.90
59999;DHT22;45859;51.378;6.736;2023-07-31T05:02:17;17.00;99.90
59999;DHT22;45859;51.378;6.736;2023-07-31T05:04:43;17.00;99.90
59999;DHT22;45859;51.378;6.736;2023-07-31T05:07:09;17.00;99.90
59999;DHT22;45859;51.378;6.736;2023-07-31T05:09:34;17.00;99.90
59999;DHT22;45859;51.378;6.736;2023-07-31T05:12:00;17.10;99.90
59999;DHT22;45859;51.378;6.736;2023-07-31T05:14:26;17.10;99.90
59999;DHT22;45859;51.378;6.736;2023-07-31T05:16:52;17.20;99.90
59999;DHT22;45859;51.378;6.736;2023-07-31T05:19:18;17.20;99.90
59999;DHT22;45859;51.378;6.736;2023-07-31T05:21:43;17.20;99.90
59999;DHT22;45859;51.378;6.736;2023-07-31T05:24:10;17.20;99.90
59999;DHT22;45859;51.378;6.736;2023-07-31T05:26:36;17.20;99.90
59999;DHT22;45859;51.378;6.736;2023-07-31T05:29:03;17.20;99.90
59999;DHT22;45859;51.378;6.736;2023-07-31T05:31:29;17.10;99.90
59999;DHT22;45859;51.378;6.736;2023-07-31T05:33:55;17.10;99.90
59999;DHT22;45859;51.378;6.736;2023-07-31T05:36:20;17.10;99.90
59999;DHT22;45859;51.378;6.736;2023-07-31T05:38:46;17.10;99.90
59999;DHT22;45859;51.378;6.736;2023-07-31T05:41:12;17.20;99.90
59999;DHT22;45859;51.378;6.736;2023-07-31T05:43:38;17.20;99.90
59999;DHT22;45859;51.378;6.736;2023-07-31T05:46:04;17.20;99.90
59999;DHT22;45859;51.378;6.736;2023-07-31T05:48:32;17.30;99.90
59999;DHT22;45859;51.378;6.736;2023-07-31T05:50:59;17.30;99.90
59999;DHT22;45859;51.378;6.736;2023-07-31T05:53:25;17.30;99.90
59999;DHT22;45859;51.378;6.736;2023-07-31T05:55:51;17.40;99.90
59999;DHT22;45859;51.378;6.736;2023-07-31T05:58:16;17.40;99.90
59999;DHT22;45859;51.378;6.736;2023-07-31T06:00:42;17.40;99.90
59999;DHT22;45859;51.378;6.736;2023-07-31T06:03:08;17.50;99.90
59999;DHT22;45859;51.378;6.736;2023-07-31T06:05:33;17.50;99.90
59999;DHT22;45859;51.378;6.736;2023-07-31T06:07:59;17.50;99.90
59999;DHT22;45859;51.378;6.736;2023-07-31T06:10:25;17.60;99.90
59999;DHT22;45859;51.378;6.736;2023-07-31T06:12:51;17.50;99.90
59999;DHT22;45859;51.378;6.736;2023-07-31T06:15:17;17.50;99.90
59999;DHT22;45859;51.378;6.736;2023-07-31T06:17:44;17.40;99.90
59999;DHT22;45859;51.378;6.736;2023-07-31T06:20:13;17.30;99.90
59999;DHT22;45859;51.378;6.736;2023-07-31T06:22:39;17.20;99.90
59999;DHT22;45859;51.378;6.736;2023-07-31T06:25:05;17.10;99.90
59999;DHT22;45859;51.378;6.736;2023-07-31T06:27:31;17.00;99.90
59999;DHT22;45859;51.378;6.736;2023-07-31T06:29:56;16.90;99.90
59999;DHT22;45859;51.378;6.736;2023-07-31T06:32:23;16.90;99.90
59999;DHT22;45859;51.378;6.736;2023-07-31T06:34:48;16.80;99.90
59999;DHT22;45859;51.378;6.736;2023-07-31T06:37:14;16.80;99.90
59999;DHT22;45859;51.378;6.736;2023-07-31T06:39:40;16.80;99.90
59999;DHT22;45859;51.378;6.736;2023-07-31T06:42:06;16.70;99.90
59999;DHT22;45859;51.378;6.736;2023-07-31T06:44:31;16.70;99.90
59999;DHT22;45859;51.378;6.736;2023-07-31T06:46:57;16.70;99.90
59999;DHT22;45859;51.378;6.736;2023-07-31T06:49:23;16.70;99.90
59999;DHT22;45859;51.378;6.736;2023-07-31T06:51:48;16.70;99.90
59999;DHT22;45859;51.378;6.736;2023-07-31T06:54:14;16.70;99.90
59999;DHT22;45859;51.378;6.736;2023-07-31T06:56:40;16.70;99.90
59999;DHT22;45859;51.378;6.736;2023-07-31T06:59:06;16.80;99.90
59999;DHT22;45859;51.378;6.736;2023-07-31T07:01:31;16.80;99.90
59999;DHT22;45859;51.378;6.736;2023-07-31T07:03:57;16.80;99.90
59999;DHT22;45859;51.378;6.736;2023-07-31T07:06:23;16.90;99.90
59999;DHT22;45859;51.378;6.736;2023-07-31T07:08:48;16.80;99.90
59999;DHT22;45859;51.378;6.736;2023-07-31T07:11:14;16.80;99.90
59999;DHT22;45859;51.378;6.736;2023-07-31T07:13:40;16.70;99.90
59999;DHT22;45859;51.378;6.736;2023-07-31T07:16:05;16.70;99.90
59999;DHT22;45859;51.378;6.736;2023-07-31T07:18:31;16.60;99.90
59999;DHT22;45859;51.378;6.736;2023-07-31T07:20:57;16.50;99.90
59999;DHT22;45859;51.378;6.736;2023-07-31T07:23:24;16.50;99.90
59999;DHT22;45859;51.378;6.736;2023-07-31T07:25:49;16.40;99.90
59999;DHT22;45859;51.378;6.736;2023-07-31T07:28:16;16.40;99.90
59999;DHT22;45859;51.378;6.736;2023-07-31T07:30:42;16.40;99.90
59999;DHT22;45859;51.378;6.736;2023-07-31T07:33:08;16.40;99.90
59999;DHT22;45859;51.378;6.736;2023-07-31T07:35:34;16.40;99.90
59999;DHT22;45859;51.378;6.736;2023-07-31T07:38:01;16.40;99.90
59999;DHT22;45859;51.378;6.736;2023-07-31T07:40:27;16.40;99.90
59999;DHT22;45859;51.378;6.736;2023-07-31T07:42:52;16.50;99.90
59999;DHT22;45859;51.378;6.736;2023-07-31T07:45:18;16.50;99.90
59999;DHT22;45859;51.378;6.736;2023-07-31T07:47:44;16.50;99.90
59999;DHT22;45859;51.378;6.736;2023-07-31T07:50:10;16.40;99.90
59999;DHT22;45859;51.378;6.736;2023-07-31T07:52:35;16.40;99.90
59999;DHT22;45859;51.378;6.736;2023-07-31T07:55:01;16.40;99.90
59999;DHT22;45859;51.378;6.736;2023-07-31T07:57:27;16.40;99.90
59999;DHT22;45859;51.378;6.736;2023-07-31T07:59:53;16.40;99.90
59999;DHT22;45859;51.378;6.736;2023-07-31T08:02:19;16.40;99.90
59999;DHT22;45859;51.378;6.736;2023-07-31T08:04:45;16.40;99.90
59999;DHT22;45859;51.378;6.736;2023-07-31T08:07:11;16.40;99.90
59999;DHT22;45859;51.378;6.736;2023-07-31T08:09:38;16.40;99.90
59999;DHT22;45859;51.378;6.736;2023-07-31T08:12:05;16.40;99.90
59999;DHT22;45859;51.378;6.736;2023-07-31T08:14:30;16.40;99.90
59999;DHT22;45859;51.378;6.736;2023-07-31T08:16:56;16.50;99.90
59999;DHT22;45859;51.378;6.736;2023-07-31T08:19:22;16.50;99.90
59999;DHT22;45859;51.378;6.736;2023-07-31T08:21:48;16.50;99.90
59999;DHT22;45859;51.378;6.736;2023-07-31T08:24:13;16.50;99.90
59999;DHT22;45859;51.378;6.736;2023-07-31T08:26:39;16.50;99.90
59999;DHT22;45859;51.378;6.736;2023-07-31T08:29:05;16.50;99.90
59999;DHT22;45859;51.378;6.736;2023-07-31T08:31:31;16.40;99.90
59999;DHT22;45859;51.378;6.736;2023-07-31T08:33:57;16.50;99.90
59999;DHT22;45859;51.378;6.736;2023-07-31T08:36:22;16.50;99.90
59999;DHT22;45859;51.378;6.736;2023-07-31T08:38:48;16.50;99.90
59999;DHT22;45859;51.378;6.736;2023-07-31T08:41:15;16.50;99.90
59999;DHT22;45859;51.378;6.736;2023-07-31T08:43:49;16.50;99.90
59999;DHT22;45859;51.378;6.736;2023-07-31T08:46:14;16.50;99.90
59999;DHT22;45859;51.378;6.736;2023-07-31T08:48:43;16.50;99.90
59999;DHT22;45859;51.378;6.736;2023-07-31T08:51:09;16.50;99.90
59999;DHT22;45859;51.378;6.736;2023-07-31T08:53:35;16.60;99.90
59999;DHT22;45859;51.378;6.736;2023-07-31T08:56:01;16.60;99.90
59999;DHT22;45859;51.378;6.736;2023-07-31T08:58:31;16.60;99.90
59999;DHT22;45859;51.378;6.736;2023-07-31T09:00:57;16.60;99.90
59999;DHT22;45859;51.378;6.736;2023-07-31T09:03:24;16.60;99.90
59999;DHT22;45859;51.378;6.736;2023-07-31T09:05:51;16.60;99.90
59999;DHT22;45859;51.378;6.736;2023-07-31T09:08:20;16.60;99.90
59999;DHT22;45859;51.378;6.736;2023-07-31T09:10:47;16.60;99.90
59999;DHT22;45859;51.378;6.736;2023-07-31T09:13:14;16.60;99.90
59999;DHT22;45859;51.378;6.736;2023-07-31T09:15:40;16.60;99.90
59999;DHT22;45859;51.378;6.736;2023-07-31T09:18:08;16.60;99.90
59999;DHT22;45859;51.378;6.736;2023-07-31T09:20:34;16.60;99.90
59999;DHT22;45859;51.378;6.736;2023-07-31T09:23:06;16.50;99.90
59999;DHT22;45859;51.378;6.736;2023-07-31T09:25:33;16.60;99.90
59999;DHT22;45859;51.378;6.736;2023-07-31T09:28:07;16.60;99.90
59999;DHT22;45859;51.378;6.736;2023-07-31T09:30:48;16.60;99.90
59999;DHT22;45859;51.378;6.736;2023-07-31T09:33:15;16.60;99.90
59999;DHT22;45859;51.378;6.736;2023-07-31T09:35:41;16.60;99.90
59999;DHT22;45859;51.378;6.736;2023-07-31T09:38:09;16.70;99.90
59999;DHT22;45859;51.378;6.736;2023-07-31T09:40:37;16.60;99.90
59999;DHT22;45859;51.378;6.736;2023-07-31T09:43:07;16.70;99.90
59999;DHT22;45859;51.378;6.736;2023-07-31T09:45:38;16.30;99.90
59999;DHT22;45859;51.378;6.736;2023-07-31T09:48:17;16.70;99.90
59999;DHT22;45859;51.378;6.736;2023-07-31T09:50:45;16.70;99.90
59999;DHT22;45859;51.378;6.736;2023-07-31T09:53:11;16.70;99.90
59999;DHT22;45859;51.378;6.736;2023-07-31T09:55:38;16.70;99.90
59999;DHT22;45859;51.378;6.736;2023-07-31T09:58:09;16.70;99.90
59999;DHT22;45859;51.378;6.736;2023-07-31T10:00:35;16.70;99.90
59999;DHT22;45859;51.378;6.736;2023-07-31T10:03:05;16.70;99.90
59999;DHT22;45859;51.378;6.736;2023-07-31T10:08:00;16.60;99.90
59999;DHT22;45859;51.378;6.736;2023-07-31T10:10:27;16.60;99.90
59999;DHT22;45859;51.378;6.736;2023-07-31T10:12:54;16.70;99.90
59999;DHT22;45859;51.378;6.736;2023-07-31T10:15:21;16.70;99.90
59999;DHT22;45859;51.378;6.736;2023-07-31T10:17:48;16.70;99.90
59999;DHT22;45859;51.378;6.736;2023-07-31T10:20:15;16.70;99.90
59999;DHT22;45859;51.378;6.736;2023-07-31T10:22:45;16.70;99.90
59999;DHT22;45859;51.378;6.736;2023-07-31T10:25:12;16.80;99.90
59999;DHT22;45859;51.378;6.736;2023-07-31T10:27:41;16.80;99.90
59999;DHT22;45859;51.378;6.736;2023-07-31T10:30:16;16.80;99.90
59999;DHT22;45859;51.378;6.736;2023-07-31T10:32:44;16.90;99.90
59999;DHT22;45859;51.378;6.736;2023-07-31T10:35:11;17.00;99.90
59999;DHT22;45859;51.378;6.736;2023-07-31T10:37:42;17.10;99.90
59999;DHT22;45859;51.378;6.736;2023-07-31T10:40:18;17.10;99.90
59999;DHT22;45859;51.378;6.736;2023-07-31T10:42:54;17.20;99.90
59999;DHT22;45859;51.378;6.736;2023-07-31T10:45:34;17.30;99.90
59999;DHT22;45859;51.378;6.736;2023-07-31T10:48:15;17.40;99.90
59999;DHT22;45859;51.378;6.736;2023-07-31T10:50:52;17.50;99.90
59999;DHT22;45859;51.378;6.736;2023-07-31T10:53:29;17.50;99.90
59999;DHT22;45859;51.378;6.736;2023-07-31T10:58:25;17.60;99.90
59999;DHT22;45859;51.378;6.736;2023-07-31T11:00:56;17.60;99.90
59999;DHT22;45859;51.378;6.736;2023-07-31T11:03:26;17.70;99.90
59999;DHT22;45859;51.378;6.736;2023-07-31T11:05:53;17.70;99.90
59999;DHT22;45859;51.378;6.736;2023-07-31T11:08:24;17.70;99.90
59999;DHT22;45859;51.378;6.736;2023-07-31T11:13:29;17.80;99.90
59999;DHT22;45859;51.378;6.736;2023-07-31T11:15:54;17.90;99.90
59999;DHT22;45859;51.378;6.736;2023-07-31T11:18:20;18.00;99.90
59999;DHT22;45859;51.378;6.736;2023-07-31T11:20:46;18.00;99.90
59999;DHT22;45859;51.378;6.736;2023-07-31T11:23:12;18.10;99.90
59999;DHT22;45859;51.378;6.736;2023-07-31T11:25:39;18.10;99.90
59999;DHT22;45859;51.378;6.736;2023-07-31T11:28:10;18.20;99.90
59999;DHT22;45859;51.378;6.736;2023-07-31T11:30:37;18.30;99.90
59999;DHT22;45859;51.378;6.736;2023-07-31T11:33:04;18.30;99.90
59999;DHT22;45859;51.378;6.736;2023-07-31T11:35:31;18.30;99.90
59999;DHT22;45859;51.378;6.736;2023-07-31T11:37:58;18.30;99.90
59999;DHT22;45859;51.378;6.736;2023-07-31T11:40:24;18.30;99.90
59999;DHT22;45859;51.378;6.736;2023-07-31T11:42:58;18.30;99.90
59999;DHT22;45859;51.378;6.736;2023-07-31T11:45:30;18.30;99.90
59999;DHT22;45859;51.378;6.736;2023-07-31T11:47:56;18.30;99.90
59999;DHT22;45859;51.378;6.736;2023-07-31T11:50:23;18.20;99.90
59999;DHT22;45859;51.378;6.736;2023-07-31T11:52:54;18.10;99.90
59999;DHT22;45859;51.378;6.736;2023-07-31T11:55:21;18.10;99.90
59999;DHT22;45859;51.378;6.736;2023-07-31T11:57:47;18.10;99.90
59999;DHT22;45859;51.378;6.736;2023-07-31T12:00:14;18.00;99.90
59999;DHT22;45859;51.378;6.736;2023-07-31T12:02:41;18.10;99.90
59999;DHT22;45859;51.378;6.736;2023-07-31T12:05:11;18.10;99.90
59999;DHT22;45859;51.378;6.736;2023-07-31T12:10:09;18.10;99.90
59999;DHT22;45859;51.378;6.736;2023-07-31T12:12:35;18.10;99.90
59999;DHT22;45859;51.378;6.736;2023-07-31T12:15:00;18.10;99.90
59999;DHT22;45859;51.378;6.736;2023-07-31T12:17:26;18.20;99.90
59999;DHT22;45859;51.378;6.736;2023-07-31T12:19:52;18.30;99.90
59999;DHT22;45859;51.378;6.736;2023-07-31T12:22:17;18.30;99.90
59999;DHT22;45859;51.378;6.736;2023-07-31T12:24:46;18.30;99.90
59999;DHT22;45859;51.378;6.736;2023-07-31T12:27:14;18.40;99.90
59999;DHT22;45859;51.378;6.736;2023-07-31T12:29:42;18.50;99.90
59999;DHT22;45859;51.378;6.736;2023-07-31T12:32:21;18.50;99.90
59999;DHT22;45859;51.378;6.736;2023-07-31T12:34:47;18.60;99.90
59999;DHT22;45859;51.378;6.736;2023-07-31T12:37:13;18.70;99.90
59999;DHT22;45859;51.378;6.736;2023-07-31T12:39:38;18.70;99.90
59999;DHT22;45859;51.378;6.736;2023-07-31T12:42:05;18.60;99.90
59999;DHT22;45859;51.378;6.736;2023-07-31T12:44:30;18.60;99.90
59999;DHT22;45859;51.378;6.736;2023-07-31T12:46:56;18.50;99.90
59999;DHT22;45859;51.378;6.736;2023-07-31T12:49:22;18.50;99.90
59999;DHT22;45859;51.378;6.736;2023-07-31T12:51:48;18.40;99.90
59999;DHT22;45859;51.378;6.736;2023-07-31T12:54:14;18.30;99.90
59999;DHT22;45859;51.378;6.736;2023-07-31T12:56:40;18.30;99.90
59999;DHT22;45859;51.378;6.736;2023-07-31T12:59:06;18.30;99.90
59999;DHT22;45859;51.378;6.736;2023-07-31T13:01:31;18.30;99.90
59999;DHT22;45859;51.378;6.736;2023-07-31T13:03:57;18.40;99.90
59999;DHT22;45859;51.378;6.736;2023-07-31T13:06:25;18.50;99.90
59999;DHT22;45859;51.378;6.736;2023-07-31T13:08:51;18.60;99.90
59999;DHT22;45859;51.378;6.736;2023-07-31T13:11:17;18.70;99.90
59999;DHT22;45859;51.378;6.736;2023-07-31T13:13:42;18.70;99.90
59999;DHT22;45859;51.378;6.736;2023-07-31T13:16:08;18.80;99.90
59999;DHT22;45859;51.378;6.736;2023-07-31T13:18:34;18.80;99.90
59999;DHT22;45859;51.378;6.736;2023-07-31T13:20:59;18.80;99.90
59999;DHT22;45859;51.378;6.736;2023-07-31T13:23:25;19.00;99.90
59999;DHT22;45859;51.378;6.736;2023-07-31T13:25:51;19.00;99.90
59999;DHT22;45859;51.378;6.736;2023-07-31T13:28:17;19.00;99.90
59999;DHT22;45859;51.378;6.736;2023-07-31T13:30:42;18.90;99.90
59999;DHT22;45859;51.378;6.736;2023-07-31T13:33:08;19.00;99.90
59999;DHT22;45859;51.378;6.736;2023-07-31T13:35:34;19.10;99.90
59999;DHT22;45859;51.378;6.736;2023-07-31T13:37:59;19.20;99.90
59999;DHT22;45859;51.378;6.736;2023-07-31T13:40:25;19.10;99.90
59999;DHT22;45859;51.378;6.736;2023-07-31T13:42:50;19.00;99.90
59999;DHT22;45859;51.378;6.736;2023-07-31T13:45:16;19.00;99.90
59999;DHT22;45859;51.378;6.736;2023-07-31T13:47:42;19.10;99.90
59999;DHT22;45859;51.378;6.736;2023-07-31T13:50:08;19.20;99.90
59999;DHT22;45859;51.378;6.736;2023-07-31T13:52:34;19.30;99.90
59999;DHT22;45859;51.378;6.736;2023-07-31T13:54:59;19.40;99.90
59999;DHT22;45859;51.378;6.736;2023-07-31T13:57:25;19.50;99.90
59999;DHT22;45859;51.378;6.736;2023-07-31T13:59:51;19.60;99.90
59999;DHT22;45859;51.378;6.736;2023-07-31T14:02:17;19.60;99.90
59999;DHT22;45859;51.378;6.736;2023-07-31T14:04:42;19.70;99.90
59999;DHT22;45859;51.378;6.736;2023-07-31T14:07:08;19.80;99.90
59999;DHT22;45859;51.378;6.736;2023-07-31T14:09:34;19.80;99.90
59999;DHT22;45859;51.378;6.736;2023-07-31T14:12:00;19.90;99.90
59999;DHT22;45859;51.378;6.736;2023-07-31T14:14:25;19.90;99.90
59999;DHT22;45859;51.378;6.736;2023-07-31T14:16:51;19.80;99.90
59999;DHT22;45859;51.378;6.736;2023-07-31T14:19:17;19.80;99.90
59999;DHT22;45859;51.378;6.736;2023-07-31T14:21:42;19.70;99.90
59999;DHT22;45859;51.378;6.736;2023-07-31T14:24:08;19.60;99.90
59999;DHT22;45859;51.378;6.736;2023-07-31T14:26:34;19.50;99.90
59999;DHT22;45859;51.378;6.736;2023-07-31T14:29:00;19.40;99.90
59999;DHT22;45859;51.378;6.736;2023-07-31T14:31:25;19.40;99.90
59999;DHT22;45859;51.378;6.736;2023-07-31T14:33:51;19.30;99.90
59999;DHT22;45859;51.378;6.736;2023-07-31T14:36:17;19.30;99.90
59999;DHT22;45859;51.378;6.736;2023-07-31T14:38:42;19.30;99.90
59999;DHT22;45859;51.378;6.736;2023-07-31T14:41:08;19.20;99.90
59999;DHT22;45859;51.378;6.736;2023-07-31T14:43:34;19.10;99.90
59999;DHT22;45859;51.378;6.736;2023-07-31T14:45:59;18.70;99.90
59999;DHT22;45859;51.378;6.736;2023-07-31T14:48:26;18.80;99.90
59999;DHT22;45859;51.378;6.736;2023-07-31T14:50:52;18.80;99.90
59999;DHT22;45859;51.378;6.736;2023-07-31T14:53:18;18.70;99.90
59999;DHT22;45859;51.378;6.736;2023-07-31T14:55:44;18.70;99.90
59999;DHT22;45859;51.378;6.736;2023-07-31T14:58:10;18.70;99.90
59999;DHT22;45859;51.378;6.736;2023-07-31T15:00:36;18.80;99.90
59999;DHT22;45859;51.378;6.736;2023-07-31T15:03:02;18.80;99.90
59999;DHT22;45859;51.378;6.736;2023-07-31T15:05:28;18.80;99.90
59999;DHT22;45859;51.378;6.736;2023-07-31T15:07:54;18.90;99.90
59999;DHT22;45859;51.378;6.736;2023-07-31T15:10:20;19.00;99.90
59999;DHT22;45859;51.378;6.736;2023-07-31T15:12:46;19.00;99.90
59999;DHT22;45859;51.378;6.736;2023-07-31T15:15:11;19.10;99.90
59999;DHT22;45859;51.378;6.736;2023-07-31T15:17:37;19.20;99.90
59999;DHT22;45859;51.378;6.736;2023-07-31T15:20:03;19.20;99.90
59999;DHT22;45859;51.378;6.736;2023-07-31T15:22:29;19.30;99.90
59999;DHT22;45859;51.378;6.736;2023-07-31T15:24:56;19.30;99.90
59999;DHT22;45859;51.378;6.736;2023-07-31T15:27:22;19.30;99.90
59999;DHT22;45859;51.378;6.736;2023-07-31T15:29:49;19.40;99.90
59999;DHT22;45859;51.378;6.736;2023-07-31T15:32:16;19.40;99.90
59999;DHT22;45859;51.378;6.736;2023-07-31T15:34:43;19.40;99.90
59999;DHT22;45859;51.378;6.736;2023-07-31T15:37:09;19.40;99.90
59999;DHT22;45859;51.378;6.736;2023-07-31T15:39:35;19.40;99.90
59999;DHT22;45859;51.378;6.736;2023-07-31T15:42:00;19.40;99.90